Time;durP1;ratioP1;P1;durP2;ratioP2;P2;SDS_P1;SDS_P2;PMS_P1;PMS_P2;Temp;Humidity;BMP_temperature;BMP_pressure;BME280_temperature;BME280_humidity;BME280_pressure;Samples;Min_cycle;Max_cycle;Signal;HPM_P1;HPM_P2
2022/11/06 00:00:20;;;;;;;14.45;7.22;;;;;;;;;;7386329;19;20006;-72
2022/11/06 00:02:48;;;;;;;15.35;7.25;;;;;;;;;;7386542;19;20070;-73
2022/11/06 00:07:57;;;;;;;16.20;7.22;;;;;;;;;;7388352;19;20529;-73
2022/11/06 00:10:23;;;;;;;12.63;7.28;;;;;;;;;;7386729;19;20010;-73
2022/11/06 00:12:49;;;;;;;12.65;6.38;;;;;;;;;;7384237;19;20010;-72
2022/11/06 00:15:14;;;;;;;15.02;7.38;;;;;;;;;;7388206;19;19999;-74
2022/11/06 00:17:40;;;;;;;13.75;7.85;;;;;;;;;;7387662;19;20003;-74
2022/11/06 00:20:06;;;;;;;13.38;7.88;;;;;;;;;;7387895;19;20085;-75
2022/11/06 00:22:35;;;;;;;15.23;7.57;;;;;;;;;;7386720;19;20062;-74
2022/11/06 00:25:01;;;;;;;14.07;8.05;;;;;;;;;;7388221;19;20033;-73
2022/11/06 00:27:27;;;;;;;15.27;7.80;;;;;;;;;;7389748;19;20010;-73
2022/11/06 00:29:52;;;;;;;16.58;8.90;;;;;;;;;;7391506;19;20007;-74
2022/11/06 00:32:18;;;;;;;16.65;8.90;;;;;;;;;;7386740;19;20023;-74
2022/11/06 00:34:43;;;;;;;17.05;9.55;;;;;;;;;;7388136;19;20491;-74
2022/11/06 00:37:09;;;;;;;18.70;8.98;;;;;;;;;;7387543;19;20486;-74
2022/11/06 00:39:34;;;;;;;14.48;8.60;;;;;;;;;;7393228;19;20318;-73
2022/11/06 00:41:59;;;;;;;16.75;8.43;;;;;;;;;;7403492;19;20299;-74
2022/11/06 00:44:24;;;;;;;16.42;9.20;;;;;;;;;;7403405;19;20002;-72
2022/11/06 00:46:50;;;;;;;20.05;8.77;;;;;;;;;;7388543;19;20009;-74
2022/11/06 00:49:15;;;;;;;21.42;9.93;;;;;;;;;;7386347;19;20009;-73
2022/11/06 00:51:41;;;;;;;25.48;10.32;;;;;;;;;;7386886;19;20003;-73
2022/11/06 00:54:10;;;;;;;15.88;9.45;;;;;;;;;;7387920;19;19999;-74
2022/11/06 00:56:35;;;;;;;26.65;9.65;;;;;;;;;;7387540;19;20396;-72
2022/11/06 00:59:03;;;;;;;18.42;9.38;;;;;;;;;;7385991;19;20070;-72
2022/11/06 01:01:34;;;;;;;17.30;9.77;;;;;;;;;;7385189;19;20003;-75
2022/11/06 01:04:04;;;;;;;18.83;9.95;;;;;;;;;;7387913;19;19999;-72
2022/11/06 01:06:32;;;;;;;17.52;9.07;;;;;;;;;;7387337;19;20356;-74
2022/11/06 01:08:58;;;;;;;17.25;9.85;;;;;;;;;;7385476;19;20110;-74
2022/11/06 01:11:34;;;;;;;17.77;9.07;;;;;;;;;;7385962;19;20472;-73
2022/11/06 01:14:01;;;;;;;19.50;9.68;;;;;;;;;;7387044;19;20565;-73
2022/11/06 01:16:27;;;;;;;17.05;9.40;;;;;;;;;;7386837;19;20003;-74
2022/11/06 01:18:53;;;;;;;20.38;9.07;;;;;;;;;;7389478;19;20002;-75
2022/11/06 01:21:22;;;;;;;24.67;9.82;;;;;;;;;;7393210;19;20003;-73
2022/11/06 01:23:55;;;;;;;16.85;9.57;;;;;;;;;;7394125;19;20018;-74
2022/11/06 01:26:21;;;;;;;16.70;8.88;;;;;;;;;;7394213;19;20003;-74
2022/11/06 01:28:46;;;;;;;22.83;9.93;;;;;;;;;;7396633;19;20067;-73
2022/11/06 01:31:15;;;;;;;22.42;9.20;;;;;;;;;;7393937;19;20011;-73
2022/11/06 01:33:41;;;;;;;17.50;9.85;;;;;;;;;;7393695;19;20539;-72
2022/11/06 01:36:11;;;;;;;18.38;9.63;;;;;;;;;;7393549;19;20003;-73
2022/11/06 01:38:40;;;;;;;21.58;10.30;;;;;;;;;;7391775;19;20003;-73
2022/11/06 01:41:05;;;;;;;15.50;9.02;;;;;;;;;;7392596;19;20380;-74
2022/11/06 01:43:48;;;;;;;16.83;8.55;;;;;;;;;;7390585;19;20003;-74
2022/11/06 01:46:15;;;;;;;19.45;8.93;;;;;;;;;;7391482;19;20074;-73
2022/11/06 01:48:43;;;;;;;17.55;8.95;;;;;;;;;;7393158;19;20102;-73
2022/11/06 01:51:09;;;;;;;19.35;9.05;;;;;;;;;;7393655;19;20496;-73
2022/11/06 01:53:35;;;;;;;15.48;8.40;;;;;;;;;;7390838;19;20352;-74
2022/11/06 01:56:04;;;;;;;16.27;9.52;;;;;;;;;;7393220;19;19999;-73
2022/11/06 01:58:32;;;;;;;14.20;7.55;;;;;;;;;;7392386;19;19999;-74
2022/11/06 02:00:58;;;;;;;14.90;7.20;;;;;;;;;;7393809;19;20010;-73
2022/11/06 02:03:23;;;;;;;14.15;7.88;;;;;;;;;;7390037;19;20002;-73
2022/11/06 02:05:49;;;;;;;15.15;7.70;;;;;;;;;;7392234;19;20010;-74
2022/11/06 02:08:18;;;;;;;14.38;8.13;;;;;;;;;;7392470;19;20292;-74
2022/11/06 02:10:44;;;;;;;17.63;8.30;;;;;;;;;;7392779;19;20374;-74
2022/11/06 02:13:15;;;;;;;19.17;8.32;;;;;;;;;;7389875;19;20576;-72
2022/11/06 02:15:53;;;;;;;;;;;;;;;;;;7393159;19;20017;-74
2022/11/06 02:18:57;;;;;;;14.88;6.93;;;;;;;;;;7391402;19;19918;-73
2022/11/06 02:21:49;;;;;;;15.55;6.40;;;;;;;;;;7389849;19;20029;-73
2022/11/06 02:24:44;;;;;;;16.27;6.80;;;;;;;;;;7392243;19;20006;-74
2022/11/06 02:27:12;;;;;;;15.25;7.35;;;;;;;;;;7392229;19;19999;-74
2022/11/06 02:29:59;;;;;;;16.30;8.07;;;;;;;;;;7396425;19;20018;-73
2022/11/06 02:32:47;;;;;;;15.45;7.07;;;;;;;;;;7389687;19;20516;-73
2022/11/06 02:35:25;;;;;;;13.02;6.93;;;;;;;;;;7396914;19;20006;-73
2022/11/06 02:37:56;;;;;;;16.05;7.35;;;;;;;;;;7395428;19;20003;-73
2022/11/06 02:40:23;;;;;;;;;;;;;;;;;;7392475;19;20539;-73
2022/11/06 02:42:52;;;;;;;13.13;6.93;;;;;;;;;;7389907;19;19993;-73
2022/11/06 02:45:19;;;;;;;12.68;5.93;;;;;;;;;;7391768;19;20026;-73
2022/11/06 02:47:48;;;;;;;14.02;6.38;;;;;;;;;;7391572;19;20106;-73
2022/11/06 02:50:31;;;;;;;14.88;6.88;;;;;;;;;;7391689;19;20006;-73
2022/11/06 02:53:03;;;;;;;16.25;6.43;;;;;;;;;;7389433;19;20003;-73
2022/11/06 02:55:37;;;;;;;13.27;6.10;;;;;;;;;;7391264;19;20013;-74
2022/11/06 02:58:09;;;;;;;12.40;6.28;;;;;;;;;;7390915;19;20400;-74
2022/11/06 03:00:37;;;;;;;15.63;6.28;;;;;;;;;;7391219;19;20007;-74
2022/11/06 03:03:10;;;;;;;12.05;6.43;;;;;;;;;;7389045;19;20003;-73
2022/11/06 03:05:48;;;;;;;17.08;6.68;;;;;;;;;;7389350;19;20485;-72
2022/11/06 03:08:25;;;;;;;11.88;5.65;;;;;;;;;;7390994;19;20007;-73
2022/11/06 03:11:12;;;;;;;13.68;6.03;;;;;;;;;;7391038;19;20543;-74
2022/11/06 03:13:47;;;;;;;15.68;6.55;;;;;;;;;;7388643;19;20007;-74
2022/11/06 03:16:48;;;;;;;15.07;6.43;;;;;;;;;;7390667;19;20006;-73
2022/11/06 03:19:16;;;;;;;11.60;6.13;;;;;;;;;;7389105;19;20094;-73
2022/11/06 03:21:50;;;;;;;11.27;5.65;;;;;;;;;;7388019;19;20066;-73
2022/11/06 03:24:24;;;;;;;11.95;6.35;;;;;;;;;;7390786;19;20365;-74
2022/11/06 03:26:51;;;;;;;12.60;5.80;;;;;;;;;;7390201;19;20010;-73
2022/11/06 03:29:35;;;;;;;11.30;6.20;;;;;;;;;;7389828;19;19999;-73
2022/11/06 03:32:05;;;;;;;13.60;6.82;;;;;;;;;;7387187;19;20680;-74
2022/11/06 03:34:38;;;;;;;16.65;7.28;;;;;;;;;;7388309;19;20002;-73
2022/11/06 03:37:17;;;;;;;16.98;7.07;;;;;;;;;;7389386;19;20006;-73
2022/11/06 03:39:51;;;;;;;15.88;7.03;;;;;;;;;;7390707;19;20033;-73
2022/11/06 03:42:22;;;;;;;15.88;6.80;;;;;;;;;;7387857;19;20354;-73
2022/11/06 03:44:54;;;;;;;12.57;6.75;;;;;;;;;;7389558;19;20566;-73
2022/11/06 03:47:24;;;;;;;17.08;6.60;;;;;;;;;;7389237;19;20015;-73
2022/11/06 03:49:57;;;;;;;17.13;7.72;;;;;;;;;;7389096;19;20082;-73
2022/11/06 03:52:55;;;;;;;13.95;7.45;;;;;;;;;;7387364;19;20030;-73
2022/11/06 03:55:36;;;;;;;17.23;7.00;;;;;;;;;;7387799;19;20002;-73
2022/11/06 03:58:19;;;;;;;13.98;6.70;;;;;;;;;;7388176;19;20003;-74
2022/11/06 04:00:45;;;;;;;14.10;6.95;;;;;;;;;;7389433;19;20033;-73
2022/11/06 04:03:40;;;;;;;13.05;6.72;;;;;;;;;;7386633;19;20330;-73
2022/11/06 04:06:15;;;;;;;16.17;6.97;;;;;;;;;;7387817;19;20023;-74
2022/11/06 04:14:15;;;;;;;16.15;6.95;;;;;;;;;;7388611;19;20124;-73
2022/11/06 04:16:45;;;;;;;14.82;7.45;;;;;;;;;;7388461;19;20061;-73
2022/11/06 04:19:19;;;;;;;16.73;7.47;;;;;;;;;;7387903;19;20027;-74
2022/11/06 04:22:09;;;;;;;13.38;6.78;;;;;;;;;;7387123;19;20003;-74
2022/11/06 04:28:07;;;;;;;19.48;7.05;;;;;;;;;;7388213;19;20018;-73
2022/11/06 04:30:40;;;;;;;12.75;6.90;;;;;;;;;;7390305;19;20014;-73
2022/11/06 04:33:21;;;;;;;15.40;7.22;;;;;;;;;;7385948;19;20002;-73
2022/11/06 04:36:04;;;;;;;16.48;8.07;;;;;;;;;;7388235;19;20010;-73
2022/11/06 04:38:50;;;;;;;19.65;7.43;;;;;;;;;;7387897;19;19999;-74
2022/11/06 04:41:33;;;;;;;17.08;8.05;;;;;;;;;;7387339;19;19998;-73
2022/11/06 04:44:03;;;;;;;15.85;7.18;;;;;;;;;;7388260;19;20058;-73
2022/11/06 04:46:36;;;;;;;12.68;6.85;;;;;;;;;;7387834;19;20041;-73
2022/11/06 04:49:04;;;;;;;15.27;7.93;;;;;;;;;;7394909;19;20468;-73
2022/11/06 04:51:34;;;;;;;14.52;7.70;;;;;;;;;;7400932;19;20002;-73
2022/11/06 04:53:59;;;;;;;12.68;7.10;;;;;;;;;;7404742;19;20003;-74
2022/11/06 04:56:29;;;;;;;18.45;7.88;;;;;;;;;;7393683;19;20010;-73
2022/11/06 04:58:54;;;;;;;17.77;7.22;;;;;;;;;;7393559;19;20006;-73
2022/11/06 05:01:19;;;;;;;17.52;8.15;;;;;;;;;;7394652;19;20003;-73
2022/11/06 05:03:45;;;;;;;13.63;7.22;;;;;;;;;;7395500;19;20002;-73
2022/11/06 05:06:10;;;;;;;16.02;7.40;;;;;;;;;;7395479;19;19995;-73
2022/11/06 05:08:35;;;;;;;17.90;8.10;;;;;;;;;;7395274;19;20070;-73
2022/11/06 05:11:01;;;;;;;15.80;7.97;;;;;;;;;;7394670;19;20011;-73
2022/11/06 05:13:26;;;;;;;17.05;8.45;;;;;;;;;;7392260;19;20544;-73
2022/11/06 05:15:56;;;;;;;19.38;8.02;;;;;;;;;;7394912;19;20071;-73
2022/11/06 05:18:22;;;;;;;16.35;6.95;;;;;;;;;;7393710;19;20012;-73
2022/11/06 05:20:47;;;;;;;14.43;7.70;;;;;;;;;;7394317;19;20007;-74
2022/11/06 05:23:12;;;;;;;16.13;8.15;;;;;;;;;;7391696;19;20464;-74
2022/11/06 05:25:39;;;;;;;16.45;8.40;;;;;;;;;;7399066;19;20513;-72
2022/11/06 05:28:06;;;;;;;18.00;7.80;;;;;;;;;;7393070;19;20027;-74
2022/11/06 05:30:33;;;;;;;20.23;8.32;;;;;;;;;;7394657;19;20002;-73
2022/11/06 05:32:58;;;;;;;15.68;7.57;;;;;;;;;;7391946;19;20056;-74
2022/11/06 05:35:24;;;;;;;18.27;8.88;;;;;;;;;;7394113;19;20186;-74
2022/11/06 05:37:49;;;;;;;17.27;8.30;;;;;;;;;;7401107;19;20481;-73
2022/11/06 05:40:17;;;;;;;19.27;8.73;;;;;;;;;;7397526;19;20030;-74
2022/11/06 05:42:43;;;;;;;30.08;10.27;;;;;;;;;;7388815;19;20070;-74
2022/11/06 05:45:09;;;;;;;21.23;9.82;;;;;;;;;;7393671;19;20012;-74
2022/11/06 05:47:39;;;;;;;36.90;10.63;;;;;;;;;;7390812;19;20005;-73
2022/11/06 05:50:04;;;;;;;62.65;10.13;;;;;;;;;;7393185;19;20007;-71
2022/11/06 05:52:30;;;;;;;123.97;12.20;;;;;;;;;;7391078;19;20009;-74
2022/11/06 05:54:55;;;;;;;106.13;11.60;;;;;;;;;;7392837;19;20016;-73
2022/11/06 05:57:21;;;;;;;169.15;14.05;;;;;;;;;;7392718;19;20037;-73
2022/11/06 05:59:46;;;;;;;73.60;12.57;;;;;;;;;;7388765;19;20003;-73
2022/11/06 06:02:11;;;;;;;87.63;11.20;;;;;;;;;;7391625;19;20003;-73
2022/11/06 06:04:37;;;;;;;76.43;11.93;;;;;;;;;;7391163;19;20350;-74
2022/11/06 06:07:02;;;;;;;72.20;11.82;;;;;;;;;;7392742;19;20005;-74
2022/11/06 06:09:27;;;;;;;63.25;11.80;;;;;;;;;;7392802;19;20023;-74
2022/11/06 06:11:53;;;;;;;26.02;8.75;;;;;;;;;;7391401;19;19998;-73
2022/11/06 06:14:19;;;;;;;37.00;9.80;;;;;;;;;;7393017;19;20006;-73
2022/11/06 06:16:45;;;;;;;67.80;11.52;;;;;;;;;;7392593;19;20028;-72
2022/11/06 06:19:10;;;;;;;69.05;10.73;;;;;;;;;;7390516;19;20030;-72
2022/11/06 06:21:36;;;;;;;92.80;11.80;;;;;;;;;;7391017;19;19995;-73
2022/11/06 06:24:02;;;;;;;57.03;9.05;;;;;;;;;;7391885;19;20448;-73
2022/11/06 06:26:27;;;;;;;56.70;8.95;;;;;;;;;;7392028;19;19999;-72
2022/11/06 06:28:53;;;;;;;33.78;8.35;;;;;;;;;;7392007;19;20010;-72
2022/11/06 06:31:18;;;;;;;20.08;9.20;;;;;;;;;;7393922;19;20037;-73
2022/11/06 06:33:44;;;;;;;19.02;7.95;;;;;;;;;;7392507;19;19995;-73
2022/11/06 06:36:09;;;;;;;25.23;8.90;;;;;;;;;;7392859;19;20014;-72
2022/11/06 06:38:35;;;;;;;38.63;7.82;;;;;;;;;;7395864;19;20023;-72
2022/11/06 06:41:06;;;;;;;34.63;9.18;;;;;;;;;;7393144;19;19995;-72
2022/11/06 06:43:31;;;;;;;29.45;10.43;;;;;;;;;;7393607;19;20019;-73
2022/11/06 06:46:02;;;;;;;36.88;8.35;;;;;;;;;;7395204;19;20441;-72
2022/11/06 06:48:34;;;;;;;31.27;8.57;;;;;;;;;;7393250;19;20023;-73
2022/11/06 06:51:03;;;;;;;25.38;7.85;;;;;;;;;;7394181;19;20048;-73
2022/11/06 06:53:29;;;;;;;36.97;8.77;;;;;;;;;;7389578;19;20003;-74
2022/11/06 06:55:58;;;;;;;35.45;8.65;;;;;;;;;;7394312;19;20020;-73
2022/11/06 06:58:23;;;;;;;60.47;9.65;;;;;;;;;;7393069;19;20502;-73
2022/11/06 07:00:48;;;;;;;28.85;9.18;;;;;;;;;;7393733;19;20688;-73
2022/11/06 07:03:14;;;;;;;43.83;8.40;;;;;;;;;;7391792;19;19999;-73
2022/11/06 07:05:42;;;;;;;59.17;10.02;;;;;;;;;;7393997;19;20015;-72
2022/11/06 07:08:08;;;;;;;21.77;8.30;;;;;;;;;;7394036;19;20003;-73
2022/11/06 07:10:33;;;;;;;35.10;10.02;;;;;;;;;;7393860;19;20014;-73
2022/11/06 07:13:03;;;;;;;41.47;9.88;;;;;;;;;;7389890;19;20492;-72
2022/11/06 07:15:29;;;;;;;31.60;10.90;;;;;;;;;;7391326;19;20035;-72
2022/11/06 07:17:54;;;;;;;34.67;10.88;;;;;;;;;;7392059;19;20766;-73
2022/11/06 07:20:19;;;;;;;26.92;10.23;;;;;;;;;;7390841;19;20019;-73
2022/11/06 07:22:45;;;;;;;39.15;11.63;;;;;;;;;;7391363;19;19995;-74
2022/11/06 07:25:10;;;;;;;47.75;12.10;;;;;;;;;;7393242;19;19994;-74
2022/11/06 07:27:35;;;;;;;36.13;11.30;;;;;;;;;;7394098;19;20341;-72
2022/11/06 07:30:01;;;;;;;24.48;10.38;;;;;;;;;;7390234;19;20005;-72
2022/11/06 07:32:27;;;;;;;33.15;12.50;;;;;;;;;;7388792;19;19995;-73
2022/11/06 07:34:52;;;;;;;48.10;11.65;;;;;;;;;;7388815;19;20016;-73
2022/11/06 07:37:26;;;;;;;37.88;11.20;;;;;;;;;;7422412;19;20922;-73
2022/11/06 07:39:51;;;;;;;27.30;10.95;;;;;;;;;;7424318;19;20377;-72
2022/11/06 07:42:16;;;;;;;32.53;11.38;;;;;;;;;;7422467;19;20051;-72
2022/11/06 07:44:41;;;;;;;42.28;13.23;;;;;;;;;;7419396;19;20014;-74
2022/11/06 07:47:07;;;;;;;30.00;12.27;;;;;;;;;;7421951;19;19997;-73
2022/11/06 07:49:32;;;;;;;26.83;12.07;;;;;;;;;;7422330;19;19995;-71
2022/11/06 07:51:57;;;;;;;31.60;12.25;;;;;;;;;;7421629;19;20266;-74
2022/11/06 07:54:23;;;;;;;34.58;13.40;;;;;;;;;;7422538;19;19994;-72
2022/11/06 07:56:48;;;;;;;30.05;12.43;;;;;;;;;;7421384;19;20511;-72
2022/11/06 07:59:13;;;;;;;32.22;13.27;;;;;;;;;;7423748;19;20376;-72
2022/11/06 08:01:39;;;;;;;29.27;12.55;;;;;;;;;;7422389;19;20451;-73
2022/11/06 08:04:04;;;;;;;34.10;14.13;;;;;;;;;;7423178;19;20324;-73
2022/11/06 08:06:29;;;;;;;37.35;14.38;;;;;;;;;;7423208;19;20103;-73
2022/11/06 08:08:54;;;;;;;34.67;14.05;;;;;;;;;;7423077;19;20002;-73
2022/11/06 08:11:20;;;;;;;29.88;13.25;;;;;;;;;;7422158;19;19994;-73
2022/11/06 08:13:45;;;;;;;35.33;13.07;;;;;;;;;;7423098;19;20066;-73
2022/11/06 08:16:13;;;;;;;28.33;12.90;;;;;;;;;;7419721;19;20002;-73
2022/11/06 08:18:39;;;;;;;28.48;13.23;;;;;;;;;;7422624;19;20058;-73
2022/11/06 08:21:05;;;;;;;28.10;12.27;;;;;;;;;;7422153;19;20011;-72
2022/11/06 08:23:31;;;;;;;25.50;11.85;;;;;;;;;;7419980;19;20019;-73
2022/11/06 08:25:59;;;;;;;23.52;11.55;;;;;;;;;;7422462;19;19998;-72
2022/11/06 08:28:26;;;;;;;16.17;9.50;;;;;;;;;;7422366;19;19994;-73
2022/11/06 08:30:52;;;;;;;25.05;10.88;;;;;;;;;;7421873;19;20003;-73
2022/11/06 08:33:17;;;;;;;21.23;10.40;;;;;;;;;;7419293;19;19999;-73
2022/11/06 08:35:43;;;;;;;24.00;11.50;;;;;;;;;;7421311;19;20353;-72
2022/11/06 08:38:08;;;;;;;20.85;12.00;;;;;;;;;;7426131;19;20077;-72
2022/11/06 08:40:36;;;;;;;24.70;10.55;;;;;;;;;;7421907;19;20394;-72
2022/11/06 08:43:04;;;;;;;17.10;9.32;;;;;;;;;;7422045;19;20013;-72
2022/11/06 08:45:30;;;;;;;22.23;9.98;;;;;;;;;;7421792;19;19998;-72
2022/11/06 08:48:01;;;;;;;17.27;10.00;;;;;;;;;;7400806;19;20005;-71
2022/11/06 08:50:26;;;;;;;19.13;9.48;;;;;;;;;;7393334;19;20023;-71
2022/11/06 08:52:51;;;;;;;18.73;9.50;;;;;;;;;;7390557;19;20483;-72
2022/11/06 08:55:16;;;;;;;17.33;8.88;;;;;;;;;;7392679;19;19998;-71
2022/11/06 08:57:42;;;;;;;17.45;9.38;;;;;;;;;;7393212;19;20292;-74
2022/11/06 09:00:08;;;;;;;20.08;8.55;;;;;;;;;;7391643;19;19995;-73
2022/11/06 09:02:33;;;;;;;17.67;9.27;;;;;;;;;;7387705;19;20357;-73
2022/11/06 09:04:58;;;;;;;17.73;8.85;;;;;;;;;;7388267;19;20010;-71
2022/11/06 09:07:23;;;;;;;19.35;9.80;;;;;;;;;;7390059;19;20018;-70
2022/11/06 09:09:49;;;;;;;20.52;9.40;;;;;;;;;;7389591;19;20014;-71
2022/11/06 09:12:14;;;;;;;18.17;8.55;;;;;;;;;;7398594;19;20007;-70
2022/11/06 09:14:39;;;;;;;19.00;7.75;;;;;;;;;;7394194;19;20014;-70
2022/11/06 09:17:05;;;;;;;13.20;7.90;;;;;;;;;;7394302;19;20006;-71
2022/11/06 09:19:30;;;;;;;13.82;7.85;;;;;;;;;;7385879;19;20037;-70
2022/11/06 09:21:56;;;;;;;16.98;8.35;;;;;;;;;;7389393;19;20360;-70
2022/11/06 09:24:21;;;;;;;13.10;7.85;;;;;;;;;;7390206;19;20007;-69
2022/11/06 09:26:46;;;;;;;12.98;7.82;;;;;;;;;;7389938;19;20010;-70
2022/11/06 09:29:12;;;;;;;13.38;8.32;;;;;;;;;;7390041;19;20065;-70
2022/11/06 09:31:37;;;;;;;12.70;8.15;;;;;;;;;;7389394;19;20002;-70
2022/11/06 09:34:02;;;;;;;14.18;8.13;;;;;;;;;;7392106;19;20015;-70
2022/11/06 09:36:27;;;;;;;15.45;8.90;;;;;;;;;;7387468;19;20009;-71
2022/11/06 09:38:53;;;;;;;13.77;8.35;;;;;;;;;;7391047;19;20007;-71
2022/11/06 09:41:42;;;;;;;15.20;8.40;;;;;;;;;;7387835;19;20055;-71
2022/11/06 09:44:25;;;;;;;15.18;8.52;;;;;;;;;;7389957;19;20015;-71
2022/11/06 09:46:52;;;;;;;12.85;7.40;;;;;;;;;;7390110;19;20401;-72
2022/11/06 09:49:46;;;;;;;12.45;6.32;;;;;;;;;;7390199;19;20388;-70
2022/11/06 09:52:22;;;;;;;12.88;6.82;;;;;;;;;;7389976;19;20497;-70
2022/11/06 09:54:59;;;;;;;16.05;6.32;;;;;;;;;;7389169;19;20034;-69
2022/11/06 09:57:24;;;;;;;15.07;6.13;;;;;;;;;;7390508;19;20477;-69
2022/11/06 09:59:50;;;;;;;17.05;4.65;;;;;;;;;;7386097;19;20010;-69
2022/11/06 10:02:28;;;;;;;8.00;4.68;;;;;;;;;;7385997;19;20358;-72
2022/11/06 10:05:30;;;;;;;54.92;7.85;;;;;;;;;;7388880;19;20492;-72
2022/11/06 10:07:58;;;;;;;10.45;4.90;;;;;;;;;;7388976;19;20061;-71
2022/11/06 10:10:33;;;;;;;10.68;4.72;;;;;;;;;;7389447;19;20066;-72
2022/11/06 10:13:05;;;;;;;12.93;5.05;;;;;;;;;;7388613;19;20542;-72
2022/11/06 10:15:43;;;;;;;8.60;4.70;;;;;;;;;;7388271;19;20006;-72
2022/11/06 10:18:22;;;;;;;8.70;5.18;;;;;;;;;;7384917;19;20002;-72
2022/11/06 10:20:53;;;;;;;10.25;5.68;;;;;;;;;;7388760;19;19999;-72
2022/11/06 10:23:49;;;;;;;8.20;4.70;;;;;;;;;;7383354;19;20009;-70
2022/11/06 10:26:17;;;;;;;14.90;7.22;;;;;;;;;;7390413;19;20589;-73
2022/11/06 10:28:54;;;;;;;9.77;4.63;;;;;;;;;;7389092;19;20006;-72
2022/11/06 10:31:35;;;;;;;12.75;5.32;;;;;;;;;;7387991;19;20082;-72
2022/11/06 10:34:02;;;;;;;9.60;5.03;;;;;;;;;;7386759;19;20344;-72
2022/11/06 10:36:41;;;;;;;10.73;5.55;;;;;;;;;;7387830;19;19995;-71
2022/11/06 10:39:14;;;;;;;8.70;4.30;;;;;;;;;;7387362;19;20070;-72
2022/11/06 10:41:42;;;;;;;8.65;4.90;;;;;;;;;;7388520;19;20301;-73
2022/11/06 10:44:18;;;;;;;9.85;5.05;;;;;;;;;;7385528;19;20070;-72
2022/11/06 10:46:49;;;;;;;8.95;5.03;;;;;;;;;;7385462;19;20018;-72
2022/11/06 10:49:30;;;;;;;8.48;4.82;;;;;;;;;;7386752;19;20463;-71
2022/11/06 10:52:20;;;;;;;9.75;4.72;;;;;;;;;;7386878;19;20033;-70
2022/11/06 10:55:01;;;;;;;10.43;5.13;;;;;;;;;;7385764;19;19994;-71
2022/11/06 10:57:36;;;;;;;8.98;5.22;;;;;;;;;;7388537;19;20003;-72
2022/11/06 11:00:09;;;;;;;9.50;5.13;;;;;;;;;;7389623;19;19994;-72
2022/11/06 11:02:39;;;;;;;9.48;4.82;;;;;;;;;;7385751;19;20002;-71
2022/11/06 11:05:19;;;;;;;9.70;4.88;;;;;;;;;;7389847;19;19998;-72
2022/11/06 11:07:46;;;;;;;7.57;4.65;;;;;;;;;;7381343;19;20041;-70
2022/11/06 11:10:24;;;;;;;6.57;4.75;;;;;;;;;;7385945;19;20782;-71
2022/11/06 11:12:52;;;;;;;13.13;5.00;;;;;;;;;;7384511;19;20058;-71
2022/11/06 11:15:22;;;;;;;9.00;4.88;;;;;;;;;;7387594;19;19998;-71
2022/11/06 11:18:09;;;;;;;10.10;4.77;;;;;;;;;;7383739;19;20002;-72
2022/11/06 11:20:37;;;;;;;8.10;4.63;;;;;;;;;;7384312;19;20005;-73
2022/11/06 11:23:17;;;;;;;8.00;4.65;;;;;;;;;;7384460;19;20048;-72
2022/11/06 11:25:48;;;;;;;6.60;4.30;;;;;;;;;;7385758;19;19998;-72
2022/11/06 11:28:25;;;;;;;8.30;4.57;;;;;;;;;;7386252;19;20066;-71
2022/11/06 11:31:11;;;;;;;6.63;4.50;;;;;;;;;;7389144;19;20007;-72
2022/11/06 11:33:38;;;;;;;11.25;4.80;;;;;;;;;;7381221;19;20013;-72
2022/11/06 11:36:06;;;;;;;7.88;4.15;;;;;;;;;;7384391;19;20011;-72
2022/11/06 11:38:34;;;;;;;8.43;4.38;;;;;;;;;;7380875;19;20007;-71
2022/11/06 11:41:19;;;;;;;9.60;4.57;;;;;;;;;;7383862;19;19995;-70
2022/11/06 11:44:10;;;;;;;8.45;3.90;;;;;;;;;;7381246;19;20472;-70
2022/11/06 11:46:46;;;;;;;8.35;3.97;;;;;;;;;;7385345;19;19998;-71
2022/11/06 11:49:31;;;;;;;7.55;4.35;;;;;;;;;;7385629;19;20097;-70
2022/11/06 11:52:09;;;;;;;9.18;3.85;;;;;;;;;;7385299;19;20027;-70
2022/11/06 11:54:36;;;;;;;7.35;4.18;;;;;;;;;;7384882;19;20584;-70
2022/11/06 11:57:04;;;;;;;9.55;4.65;;;;;;;;;;7385450;19;20014;-71
2022/11/06 11:59:33;;;;;;;8.50;4.40;;;;;;;;;;7385477;19;20010;-72
2022/11/06 12:02:13;;;;;;;7.35;4.25;;;;;;;;;;7382967;19;20472;-70
2022/11/06 12:04:41;;;;;;;7.22;4.13;;;;;;;;;;7384178;19;20003;-69
2022/11/06 12:07:19;;;;;;;7.55;4.30;;;;;;;;;;7387645;19;20479;-69
2022/11/06 12:09:45;;;;;;;8.07;4.30;;;;;;;;;;7385561;19;20007;-70
2022/11/06 12:12:44;;;;;;;7.93;4.32;;;;;;;;;;7379375;19;20124;-70
2022/11/06 12:15:18;;;;;;;7.05;4.47;;;;;;;;;;7383558;19;20003;-70
2022/11/06 12:17:48;;;;;;;7.45;4.07;;;;;;;;;;7382447;19;20103;-70
2022/11/06 12:20:19;;;;;;;9.27;3.88;;;;;;;;;;7383875;19;20032;-70
2022/11/06 12:22:48;;;;;;;8.73;4.20;;;;;;;;;;7382770;19;20571;-70
2022/11/06 12:25:29;;;;;;;5.75;3.63;;;;;;;;;;7392613;19;20564;-70
2022/11/06 12:27:58;;;;;;;;;;;;;;;;;;7391530;19;20661;-70
2022/11/06 12:30:23;;;;;;;9.90;5.03;;;;;;;;;;7393276;19;19933;-71
2022/11/06 12:33:16;;;;;;;11.52;4.88;;;;;;;;;;7388524;19;20003;-70
2022/11/06 12:35:46;;;;;;;6.40;4.25;;;;;;;;;;7390182;19;20002;-70
2022/11/06 12:38:28;;;;;;;8.23;4.40;;;;;;;;;;7391087;19;19999;-71
2022/11/06 12:40:56;;;;;;;;;;;;;;;;;;7393628;19;20089;-75
2022/11/06 12:43:27;;;;;;;6.25;3.75;;;;;;;;;;7386214;19;19947;-77
2022/11/06 12:45:58;;;;;;;10.13;4.25;;;;;;;;;;7394259;19;19999;-74
2022/11/06 12:48:43;;;;;;;;;;;;;;;;;;7390859;19;21001;-78
2022/11/06 12:51:24;;;;;;;7.38;3.40;;;;;;;;;;7390891;19;19914;-76
2022/11/06 12:53:52;;;;;;;;;;;;;;;;;;7391953;19;20011;-76
2022/11/06 12:56:25;;;;;;;8.00;3.83;;;;;;;;;;7391856;19;19971;-76
2022/11/06 12:59:18;;;;;;;7.57;3.55;;;;;;;;;;7390310;19;19999;-75
2022/11/06 13:02:01;;;;;;;7.05;3.67;;;;;;;;;;7394233;19;20088;-75
2022/11/06 13:04:59;;;;;;;8.30;3.70;;;;;;;;;;7390044;19;20064;-75
2022/11/06 13:08:13;;;;;;;6.18;3.40;;;;;;;;;;7391118;19;20033;-77
2022/11/06 13:11:00;;;;;;;8.43;3.88;;;;;;;;;;7387072;19;20464;-76
2022/11/06 13:13:55;;;;;;;7.05;4.05;;;;;;;;;;7385738;19;20005;-77
2022/11/06 13:16:54;;;;;;;6.85;3.38;;;;;;;;;;7389373;19;20014;-77
2022/11/06 13:19:32;;;;;;;9.73;3.70;;;;;;;;;;7389831;19;20006;-76
2022/11/06 13:22:26;;;;;;;7.85;4.07;;;;;;;;;;7390686;19;20475;-74
2022/11/06 13:24:55;;;;;;;7.00;3.80;;;;;;;;;;7401667;19;20010;-77
2022/11/06 13:27:41;;;;;;;9.18;4.28;;;;;;;;;;7401553;19;20006;-74
2022/11/06 13:30:23;;;;;;;6.30;3.95;;;;;;;;;;7393101;19;20459;-76
2022/11/06 13:33:11;;;;;;;6.07;3.30;;;;;;;;;;7389297;19;20487;-76
2022/11/06 13:35:40;;;;;;;6.90;3.60;;;;;;;;;;7388394;19;20013;-76
2022/11/06 13:38:07;;;;;;;7.57;3.50;;;;;;;;;;7391541;19;20497;-75
2022/11/06 13:40:41;;;;;;;7.18;3.33;;;;;;;;;;7388641;19;20002;-76
2022/11/06 13:43:16;;;;;;;5.57;3.25;;;;;;;;;;7386988;19;20021;-77
2022/11/06 13:45:51;;;;;;;8.68;4.00;;;;;;;;;;7389893;19;20034;-80
2022/11/06 13:48:42;;;;;;;6.25;3.45;;;;;;;;;;7392075;19;19997;-78
2022/11/06 13:51:31;;;;;;;6.82;3.45;;;;;;;;;;7388367;19;20002;-73
2022/11/06 13:54:11;;;;;;;6.72;3.90;;;;;;;;;;7391898;19;20009;-72
2022/11/06 13:57:02;;;;;;;5.75;3.15;;;;;;;;;;7378369;19;20022;-70
2022/11/06 13:59:46;;;;;;;;;;;;;;;;;;7385461;19;19998;-70
2022/11/06 14:02:14;;;;;;;6.07;3.45;;;;;;;;;;7389728;19;20345;-70
2022/11/06 14:04:48;;;;;;;8.07;4.00;;;;;;;;;;7393107;19;19999;-71
2022/11/06 14:07:15;;;;;;;10.63;4.32;;;;;;;;;;7392139;19;20070;-70
2022/11/06 14:09:44;;;;;;;8.65;3.95;;;;;;;;;;7391215;19;20034;-71
2022/11/06 14:12:16;;;;;;;8.60;3.92;;;;;;;;;;7394129;19;20065;-71
2022/11/06 14:14:42;;;;;;;8.60;4.15;;;;;;;;;;7389257;19;20026;-71
2022/11/06 14:17:14;;;;;;;6.68;3.47;;;;;;;;;;7388970;19;20688;-71
2022/11/06 14:20:01;;;;;;;8.40;3.65;;;;;;;;;;7390629;19;20369;-71
2022/11/06 14:22:35;;;;;;;8.18;4.35;;;;;;;;;;7388769;19;19994;-71
2022/11/06 14:25:23;;;;;;;7.00;3.65;;;;;;;;;;7394382;19;19998;-71
2022/11/06 14:27:48;;;;;;;10.05;3.58;;;;;;;;;;7380351;19;20007;-70
2022/11/06 14:30:14;;;;;;;8.00;3.60;;;;;;;;;;7387719;19;20014;-71
2022/11/06 14:32:48;;;;;;;6.93;3.65;;;;;;;;;;7384483;19;20280;-70
2022/11/06 14:35:32;;;;;;;6.18;3.47;;;;;;;;;;7384666;19;20478;-73
2022/11/06 14:38:16;;;;;;;9.55;3.97;;;;;;;;;;7384055;19;20513;-72
2022/11/06 14:40:42;;;;;;;6.53;3.65;;;;;;;;;;7387352;19;20006;-72
2022/11/06 14:43:20;;;;;;;8.82;3.95;;;;;;;;;;7384775;19;20006;-73
2022/11/06 14:46:17;;;;;;;7.03;3.72;;;;;;;;;;7385359;19;20017;-73
2022/11/06 14:48:46;;;;;;;8.15;3.60;;;;;;;;;;7378710;19;20409;-71
2022/11/06 14:51:13;;;;;;;6.93;3.47;;;;;;;;;;7382410;19;20036;-72
2022/11/06 14:53:55;;;;;;;7.65;3.70;;;;;;;;;;7384969;19;20333;-72
2022/11/06 14:56:26;;;;;;;7.78;3.65;;;;;;;;;;7388043;19;20010;-71
2022/11/06 14:58:55;;;;;;;7.35;3.97;;;;;;;;;;7386638;19;20025;-71
2022/11/06 15:01:27;;;;;;;6.32;3.33;;;;;;;;;;7386502;19;20035;-72
2022/11/06 15:03:55;;;;;;;9.25;4.00;;;;;;;;;;7385941;19;20527;-72
2022/11/06 15:06:30;;;;;;;7.68;4.00;;;;;;;;;;7387875;19;20040;-70
2022/11/06 15:09:03;;;;;;;6.55;3.50;;;;;;;;;;7387306;19;20390;-71
2022/11/06 15:11:29;;;;;;;7.75;3.63;;;;;;;;;;7386670;19;21083;-71